createdAt,value
2022-07-30T00:01:52.346Z,20.46
2022-07-30T00:04:19.999Z,20.39
2022-07-30T00:06:46.596Z,20.32
2022-07-30T00:09:13.266Z,20.23
2022-07-30T00:11:39.842Z,20.18
2022-07-30T00:14:06.813Z,20.17
2022-07-30T00:16:33.607Z,20.14
2022-07-30T00:19:00.197Z,20.07
2022-07-30T00:21:38.447Z,20.03
2022-07-30T00:24:06.342Z,19.90
2022-07-30T00:26:32.931Z,20.07
2022-07-30T00:28:59.471Z,20.08
2022-07-30T00:31:26.181Z,20.07
2022-07-30T00:33:52.762Z,19.99
2022-07-30T00:36:19.312Z,19.94
2022-07-30T00:38:46.102Z,19.84
2022-07-30T00:41:12.879Z,19.76
2022-07-30T00:43:42.756Z,19.77
2022-07-30T00:46:09.314Z,19.77
2022-07-30T00:48:36.435Z,19.68
2022-07-30T00:51:03.213Z,19.72
2022-07-30T00:53:29.941Z,19.71
2022-07-30T00:55:56.734Z,19.71
2022-07-30T00:58:23.413Z,19.73
2022-07-30T01:00:50.194Z,19.66
2022-07-30T01:03:16.805Z,19.71
2022-07-30T01:05:43.347Z,19.58
2022-07-30T01:08:09.952Z,19.67
2022-07-30T01:10:36.607Z,19.67
2022-07-30T01:13:04.235Z,19.68
2022-07-30T01:15:32.076Z,19.68
2022-07-30T01:18:01.545Z,19.62
2022-07-30T01:20:37.114Z,19.61
2022-07-30T01:23:38.174Z,19.55
2022-07-30T01:26:10.011Z,19.55
2022-07-30T01:28:41.706Z,19.49
2022-07-30T01:31:10.987Z,19.49
2022-07-30T01:33:40.707Z,19.27
2022-07-30T01:36:10.529Z,19.34
2022-07-30T01:38:38.759Z,19.19
2022-07-30T01:41:07.100Z,19.15
2022-07-30T01:43:35.893Z,19.18
2022-07-30T01:46:04.040Z,19.18
2022-07-30T01:48:34.975Z,19.01
2022-07-30T01:51:05.106Z,19.08
2022-07-30T01:53:33.821Z,18.99
2022-07-30T01:56:02.397Z,18.94
2022-07-30T01:58:32.686Z,18.94
2022-07-30T02:00:59.666Z,18.78
2022-07-30T02:03:27.479Z,18.90
2022-07-30T02:05:57.614Z,18.83
2022-07-30T02:08:30.283Z,18.82
2022-07-30T02:11:08.432Z,18.75
2022-07-30T02:13:50.532Z,18.70
2022-07-30T02:16:25.494Z,18.66
2022-07-30T02:19:06.852Z,18.68
2022-07-30T02:21:39.692Z,18.57
2022-07-30T02:24:21.819Z,18.77
2022-07-30T02:26:54.324Z,18.72
2022-07-30T02:29:23.442Z,18.79
2022-07-30T02:31:51.951Z,18.78
2022-07-30T02:34:21.613Z,18.82
2022-07-30T02:36:49.110Z,18.72
2022-07-30T02:39:16.712Z,18.85
2022-07-30T02:41:49.536Z,18.78
2022-07-30T02:44:20.141Z,18.66
2022-07-30T02:46:48.083Z,18.61
2022-07-30T02:49:17.575Z,18.63
2022-07-30T02:51:47.742Z,18.65
2022-07-30T02:54:16.599Z,18.67
2022-07-30T02:56:44.397Z,18.66
2022-07-30T02:59:12.302Z,18.69
2022-07-30T03:01:39.270Z,18.71
2022-07-30T03:04:07.767Z,18.60
2022-07-30T03:06:35.697Z,18.56
2022-07-30T03:09:04.508Z,18.61
2022-07-30T03:11:31.957Z,18.75
2022-07-30T03:13:58.601Z,18.71
2022-07-30T03:16:28.305Z,18.62
2022-07-30T03:19:00.099Z,18.66
2022-07-30T03:21:27.794Z,18.71
2022-07-30T03:23:58.452Z,18.75
2022-07-30T03:26:26.625Z,18.69
2022-07-30T03:28:53.564Z,18.71
2022-07-30T03:31:20.318Z,18.70
2022-07-30T03:33:49.025Z,18.66
2022-07-30T03:36:16.050Z,18.65
2022-07-30T03:38:44.060Z,18.57
2022-07-30T03:41:11.422Z,18.70
2022-07-30T03:43:40.321Z,18.63
2022-07-30T03:46:07.953Z,18.55
2022-07-30T03:48:35.691Z,18.69
2022-07-30T03:51:06.276Z,18.66
2022-07-30T03:53:33.189Z,18.73
2022-07-30T03:56:00.928Z,18.78
2022-07-30T03:58:27.704Z,18.89
2022-07-30T04:01:00.814Z,18.79
2022-07-30T04:03:32.928Z,18.92
2022-07-30T04:06:00.148Z,18.77
2022-07-30T04:08:28.123Z,18.91
2022-07-30T04:10:55.161Z,18.94
2022-07-30T04:13:21.817Z,19.03
2022-07-30T04:16:39.167Z,19.12
2022-07-30T04:19:00.614Z,19.16
2022-07-30T04:21:28.658Z,19.05
2022-07-30T04:24:04.286Z,18.93
2022-07-30T04:26:34.442Z,18.80
2022-07-30T04:29:02.638Z,18.73
2022-07-30T04:31:40.024Z,18.61
2022-07-30T04:34:08.360Z,18.52
2022-07-30T04:36:36.066Z,18.63
2022-07-30T04:39:03.686Z,18.69
2022-07-30T04:41:48.086Z,18.76
2022-07-30T04:44:16.303Z,18.78
2022-07-30T04:46:43.084Z,18.94
2022-07-30T04:49:11.643Z,18.98
2022-07-30T04:51:39.111Z,18.93
2022-07-30T04:54:09.058Z,18.68
2022-07-30T04:56:53.136Z,18.71
2022-07-30T04:59:23.731Z,18.75
2022-07-30T05:01:51.505Z,18.92
2022-07-30T05:04:20.525Z,19.00
2022-07-30T05:06:47.821Z,19.04
2022-07-30T05:09:16.092Z,19.06
2022-07-30T05:11:42.854Z,18.90
2022-07-30T05:14:09.422Z,18.93
2022-07-30T05:16:36.146Z,18.77
2022-07-30T05:19:07.515Z,18.74
2022-07-30T05:21:34.929Z,18.70
2022-07-30T05:24:01.543Z,18.71
2022-07-30T05:26:28.221Z,18.78
2022-07-30T05:28:57.002Z,18.87
2022-07-30T05:31:24.471Z,18.93
2022-07-30T05:33:52.463Z,18.97
2022-07-30T05:36:22.241Z,19.13
2022-07-30T05:38:49.240Z,19.23
2022-07-30T05:41:19.048Z,19.38
2022-07-30T05:43:59.270Z,19.40
2022-07-30T05:46:25.934Z,19.50
2022-07-30T05:48:52.693Z,19.49
2022-07-30T05:51:20.923Z,19.65
2022-07-30T05:53:47.991Z,19.73
2022-07-30T05:56:14.508Z,19.76
2022-07-30T05:58:41.157Z,19.79
2022-07-30T06:01:07.912Z,19.76
2022-07-30T06:03:35.238Z,19.88
2022-07-30T06:06:04.682Z,19.82
2022-07-30T06:08:31.500Z,19.72
2022-07-30T06:10:58.562Z,19.55
2022-07-30T06:13:25.582Z,19.53
2022-07-30T06:15:52.284Z,19.47
2022-07-30T06:18:18.916Z,19.59
2022-07-30T06:20:46.074Z,19.76
2022-07-30T06:23:13.196Z,20.09
2022-07-30T06:25:39.973Z,20.46
2022-07-30T06:28:34.765Z,20.77
2022-07-30T06:30:54.173Z,21.12
2022-07-30T06:33:20.730Z,21.39
2022-07-30T06:35:49.053Z,21.43
2022-07-30T06:38:15.703Z,21.57
2022-07-30T06:40:42.269Z,21.70
2022-07-30T06:43:09.284Z,21.84
2022-07-30T06:45:36.016Z,22.37
2022-07-30T06:48:02.662Z,22.86
2022-07-30T06:50:29.253Z,23.20
2022-07-30T06:52:55.829Z,23.55
2022-07-30T06:55:22.416Z,23.65
2022-07-30T06:57:49.029Z,24.04
2022-07-30T07:00:15.775Z,24.25
2022-07-30T07:02:42.816Z,24.37
2022-07-30T07:05:10.081Z,24.54
2022-07-30T07:07:42.319Z,24.68
2022-07-30T07:10:13.134Z,24.72
2022-07-30T07:12:39.802Z,24.75
2022-07-30T07:15:07.078Z,24.95
2022-07-30T07:17:33.697Z,25.10
2022-07-30T07:20:02.611Z,25.21
2022-07-30T07:22:29.507Z,25.24
2022-07-30T07:24:56.184Z,25.53
2022-07-30T07:27:23.067Z,25.66
2022-07-30T07:30:01.467Z,25.65
2022-07-30T07:32:32.627Z,25.68
2022-07-30T07:34:59.327Z,25.72
2022-07-30T07:37:25.909Z,25.68
2022-07-30T07:39:52.599Z,25.98
2022-07-30T07:42:19.225Z,26.09
2022-07-30T07:44:45.849Z,26.10
2022-07-30T07:47:12.461Z,25.60
2022-07-30T07:49:39.053Z,25.33
2022-07-30T07:52:06.057Z,24.94
2022-07-30T07:54:32.694Z,25.02
2022-07-30T07:56:59.702Z,25.27
2022-07-30T07:59:39.698Z,25.37
2022-07-30T08:02:08.132Z,24.83
2022-07-30T08:04:35.582Z,24.71
2022-07-30T08:07:03.159Z,25.21
2022-07-30T08:09:43.550Z,25.61
2022-07-30T08:12:13.149Z,26.16
2022-07-30T08:14:39.847Z,25.66
2022-07-30T08:17:07.168Z,25.47
2022-07-30T08:19:34.239Z,25.77
2022-07-30T08:22:00.874Z,26.00
2022-07-30T08:24:27.398Z,26.47
2022-07-30T08:26:54.036Z,26.72
2022-07-30T08:29:20.674Z,26.85
2022-07-30T08:31:47.309Z,27.06
2022-07-30T08:34:13.971Z,27.17
2022-07-30T08:36:40.783Z,27.42
2022-07-30T08:39:07.490Z,27.58
2022-07-30T08:41:36.121Z,27.21
2022-07-30T08:44:03.362Z,26.75
2022-07-30T08:46:33.356Z,26.94
2022-07-30T08:49:07.673Z,27.26
2022-07-30T08:51:38.133Z,26.66
2022-07-30T08:54:06.140Z,25.90
2022-07-30T08:56:34.022Z,25.24
2022-07-30T08:59:01.503Z,25.37
2022-07-30T09:01:28.038Z,25.99
2022-07-30T09:03:54.663Z,26.41
2022-07-30T09:06:21.263Z,26.32
2022-07-30T09:08:47.937Z,25.76
2022-07-30T09:11:14.450Z,25.60
2022-07-30T09:13:42.406Z,25.47
2022-07-30T09:16:22.924Z,25.22
2022-07-30T09:18:50.159Z,24.94
2022-07-30T09:21:24.126Z,24.04
2022-07-30T09:23:57.865Z,23.24
2022-07-30T09:26:24.643Z,22.71
2022-07-30T09:28:51.239Z,22.65
2022-07-30T09:31:19.246Z,22.69
2022-07-30T09:33:47.591Z,22.85
2022-07-30T09:36:16.579Z,22.89
2022-07-30T09:38:51.568Z,22.64
2022-07-30T09:41:39.220Z,22.61
2022-07-30T09:44:07.050Z,22.87
2022-07-30T09:47:01.374Z,23.33
2022-07-30T09:49:29.283Z,23.34
2022-07-30T09:51:57.590Z,23.54
2022-07-30T09:54:26.092Z,23.90
2022-07-30T09:57:22.796Z,24.50
2022-07-30T10:02:28.537Z,25.62
2022-07-30T10:05:14.426Z,25.75
2022-07-30T10:08:05.492Z,25.80
2022-07-30T10:10:36.409Z,25.81
2022-07-30T10:13:19.074Z,26.00
2022-07-30T10:15:49.694Z,26.03
2022-07-30T10:18:17.595Z,26.07
2022-07-30T10:20:44.889Z,26.12
2022-07-30T10:23:15.630Z,26.25
2022-07-30T10:25:49.326Z,26.48
2022-07-30T10:28:22.010Z,26.76
2022-07-30T10:30:53.420Z,26.71
2022-07-30T10:33:34.498Z,26.55
2022-07-30T10:36:03.021Z,26.69
2022-07-30T10:38:34.332Z,26.97
2022-07-30T10:41:47.338Z,26.65
2022-07-30T10:44:36.531Z,26.40
2022-07-30T10:47:09.229Z,26.54
2022-07-30T10:49:41.530Z,26.65
2022-07-30T10:52:12.337Z,26.48
2022-07-30T10:54:42.863Z,26.49
2022-07-30T10:57:14.940Z,26.42
2022-07-30T11:00:01.210Z,26.53
2022-07-30T11:02:35.262Z,26.76
2022-07-30T11:05:45.038Z,26.75
2022-07-30T11:08:35.883Z,26.64
2022-07-30T11:11:16.125Z,26.48
2022-07-30T11:13:57.612Z,26.27
2022-07-30T11:16:44.039Z,26.55
2022-07-30T11:19:56.583Z,26.77
2022-07-30T11:22:51.661Z,27.10
2022-07-30T11:25:22.664Z,27.11
2022-07-30T11:27:50.835Z,26.43
2022-07-30T11:30:20.618Z,26.21
2022-07-30T11:32:51.681Z,26.26
2022-07-30T11:35:34.938Z,26.58
2022-07-30T11:38:22.441Z,26.72
2022-07-30T11:40:49.190Z,26.47
2022-07-30T11:43:35.190Z,26.47
2022-07-30T11:46:11.137Z,26.77
2022-07-30T11:48:41.985Z,27.07
2022-07-30T11:51:09.439Z,27.33
2022-07-30T11:53:37.199Z,27.52
2022-07-30T11:56:04.079Z,27.46
2022-07-30T11:58:39.755Z,27.23
2022-07-30T12:01:13.286Z,27.07
2022-07-30T12:03:41.366Z,26.80
2022-07-30T12:06:23.437Z,26.69
2022-07-30T12:08:57.871Z,26.53
2022-07-30T12:11:31.326Z,26.95
2022-07-30T12:14:00.221Z,27.08
2022-07-30T12:16:27.606Z,27.27
2022-07-30T12:18:54.612Z,27.29
2022-07-30T12:21:21.388Z,27.64
2022-07-30T12:23:59.014Z,27.97
2022-07-30T12:26:27.752Z,28.02
2022-07-30T12:28:55.993Z,27.96
2022-07-30T12:31:22.875Z,27.50
2022-07-30T12:33:49.483Z,27.49
2022-07-30T12:36:34.103Z,27.86
2022-07-30T12:39:02.485Z,28.28
2022-07-30T12:41:47.055Z,28.50
2022-07-30T12:44:51.210Z,28.45
2022-07-30T12:47:28.879Z,28.24
2022-07-30T12:49:57.956Z,27.76
2022-07-30T12:52:31.302Z,27.69
2022-07-30T12:55:02.821Z,27.52
2022-07-30T12:58:07.098Z,27.44
2022-07-30T13:00:52.272Z,27.17
2022-07-30T13:03:27.544Z,27.29
2022-07-30T13:05:56.530Z,27.27
2022-07-30T13:08:46.082Z,27.67
2022-07-30T13:11:12.699Z,28.00
2022-07-30T13:13:39.505Z,28.36
2022-07-30T13:16:07.524Z,28.32
2022-07-30T13:18:36.464Z,28.39
2022-07-30T13:21:04.978Z,28.40
2022-07-30T13:23:31.614Z,28.48
2022-07-30T13:25:58.363Z,28.59
2022-07-30T13:28:25.552Z,28.73
2022-07-30T13:30:52.638Z,28.53
2022-07-30T13:33:19.245Z,28.54
2022-07-30T13:35:45.801Z,28.32
2022-07-30T13:38:13.740Z,28.03
2022-07-30T13:40:40.541Z,27.71
2022-07-30T13:43:07.324Z,27.59
2022-07-30T13:45:35.767Z,27.83
2022-07-30T13:48:02.743Z,27.78
2022-07-30T13:50:29.434Z,27.70
2022-07-30T13:53:01.801Z,28.01
2022-07-30T13:55:29.154Z,28.33
2022-07-30T13:57:55.956Z,28.47
2022-07-30T14:00:23.194Z,28.48
2022-07-30T14:02:49.860Z,28.67
2022-07-30T14:05:16.726Z,28.80
2022-07-30T14:07:43.480Z,28.57
2022-07-30T14:10:10.116Z,28.60
2022-07-30T14:12:37.930Z,28.59
2022-07-30T14:15:04.976Z,28.65
2022-07-30T14:17:31.852Z,28.48
2022-07-30T14:19:58.697Z,28.60
2022-07-30T14:22:25.263Z,28.64
2022-07-30T14:24:51.874Z,28.69
2022-07-30T14:27:20.501Z,28.62
2022-07-30T14:29:47.607Z,28.56
2022-07-30T14:32:14.476Z,28.35
2022-07-30T14:34:41.406Z,28.11
2022-07-30T14:37:16.745Z,28.02
2022-07-30T14:39:43.442Z,28.11
2022-07-30T14:42:10.976Z,28.01
2022-07-30T14:44:38.120Z,27.99
2022-07-30T14:47:05.521Z,28.05
2022-07-30T14:49:32.427Z,28.05
2022-07-30T14:51:59.267Z,27.98
2022-07-30T14:54:27.923Z,27.97
2022-07-30T14:56:58.252Z,28.14
2022-07-30T14:59:27.580Z,28.26
2022-07-30T15:01:55.388Z,28.32
2022-07-30T15:04:23.096Z,28.54
2022-07-30T15:06:49.878Z,28.46
2022-07-30T15:09:16.512Z,28.57
2022-07-30T15:12:07.698Z,28.50
2022-07-30T15:14:29.897Z,28.38
2022-07-30T15:17:03.472Z,28.32
2022-07-30T15:19:30.936Z,28.28
2022-07-30T15:21:58.330Z,28.37
2022-07-30T15:24:25.313Z,28.56
2022-07-30T15:26:54.778Z,28.52
2022-07-30T15:29:21.410Z,28.21
2022-07-30T15:31:47.989Z,28.16
2022-07-30T15:34:14.602Z,28.18
2022-07-30T15:36:41.271Z,28.15
2022-07-30T15:39:07.854Z,27.86
2022-07-30T15:41:34.556Z,27.81
2022-07-30T15:44:01.104Z,27.64
2022-07-30T15:46:27.793Z,27.57
2022-07-30T15:48:54.641Z,27.43
2022-07-30T15:51:21.262Z,27.38
2022-07-30T15:53:47.920Z,27.32
2022-07-30T15:56:15.968Z,27.33
2022-07-30T15:58:43.688Z,27.37
2022-07-30T16:01:10.462Z,27.48
2022-07-30T16:03:37.563Z,27.65
2022-07-30T16:06:04.174Z,27.63
2022-07-30T16:08:30.704Z,27.77
2022-07-30T16:10:58.290Z,27.86
2022-07-30T16:13:25.001Z,27.91
2022-07-30T16:15:51.658Z,27.98
2022-07-30T16:18:18.390Z,27.96
2022-07-30T16:20:45.040Z,28.07
2022-07-30T16:23:14.133Z,28.09
2022-07-30T16:25:42.502Z,28.01
2022-07-30T16:28:09.150Z,27.91
2022-07-30T16:30:35.774Z,27.95
2022-07-30T16:33:17.956Z,27.80
2022-07-30T16:35:48.841Z,27.74
2022-07-30T16:38:17.218Z,27.65
2022-07-30T16:40:43.933Z,27.56
2022-07-30T16:43:10.708Z,27.39
2022-07-30T16:45:37.260Z,27.36
2022-07-30T16:48:04.171Z,27.38
2022-07-30T16:50:31.021Z,27.45
2022-07-30T16:52:57.633Z,27.46
2022-07-30T16:55:24.225Z,27.49
2022-07-30T16:57:51.074Z,27.50
2022-07-30T17:00:18.294Z,27.60
2022-07-30T17:02:45.050Z,27.64
2022-07-30T17:05:13.766Z,27.66
2022-07-30T17:07:40.647Z,27.46
2022-07-30T17:10:11.135Z,27.42
2022-07-30T17:12:38.901Z,27.32
2022-07-30T17:15:07.510Z,27.31
2022-07-30T17:17:34.126Z,27.27
2022-07-30T17:20:01.971Z,27.14
2022-07-30T17:22:29.882Z,27.15
2022-07-30T17:24:56.503Z,27.10
2022-07-30T17:27:23.338Z,27.08
2022-07-30T17:29:51.211Z,26.97
2022-07-30T17:32:19.358Z,27.07
2022-07-30T17:34:46.783Z,27.03
2022-07-30T17:37:13.526Z,26.88
2022-07-30T17:40:27.183Z,26.90
2022-07-30T17:42:26.871Z,26.82
2022-07-30T17:44:53.590Z,26.76
2022-07-30T17:47:20.176Z,26.72
2022-07-30T17:49:47.457Z,26.65
2022-07-30T17:52:14.040Z,26.55
2022-07-30T17:54:40.707Z,26.43
2022-07-30T17:57:07.329Z,26.35
2022-07-30T17:59:33.924Z,26.28
2022-07-30T18:02:00.892Z,26.23
2022-07-30T18:04:27.734Z,26.18
2022-07-30T18:06:54.353Z,25.95
2022-07-30T18:09:21.090Z,25.93
2022-07-30T18:11:49.009Z,25.84
2022-07-30T18:14:15.838Z,25.81
2022-07-30T18:16:42.626Z,25.71
2022-07-30T18:19:09.177Z,25.67
2022-07-30T18:21:53.633Z,25.60
2022-07-30T18:24:21.227Z,25.52
2022-07-30T18:26:51.264Z,25.51
2022-07-30T18:29:18.107Z,25.47
2022-07-30T18:31:44.640Z,25.46
2022-07-30T18:34:14.296Z,25.39
2022-07-30T18:36:41.000Z,25.33
2022-07-30T18:39:07.639Z,25.24
2022-07-30T18:41:34.350Z,25.20
2022-07-30T18:44:00.978Z,25.15
2022-07-30T18:46:27.952Z,25.08
2022-07-30T18:48:54.684Z,25.02
2022-07-30T18:51:25.076Z,24.96
2022-07-30T18:53:52.543Z,24.91
2022-07-30T18:56:20.276Z,24.87
2022-07-30T18:58:46.950Z,24.82
2022-07-30T19:01:13.830Z,24.77
2022-07-30T19:03:40.515Z,24.66
2022-07-30T19:06:07.139Z,24.69
2022-07-30T19:08:33.726Z,24.53
2022-07-30T19:11:01.066Z,24.54
2022-07-30T19:13:27.598Z,24.52
2022-07-30T19:15:54.413Z,24.44
2022-07-30T19:18:20.974Z,24.40
2022-07-30T19:20:47.630Z,24.35
2022-07-30T19:23:16.426Z,24.26
2022-07-30T19:25:42.982Z,24.22
2022-07-30T19:28:11.326Z,24.19
2022-07-30T19:30:37.854Z,24.11
2022-07-30T19:33:14.718Z,23.87
2022-07-30T19:35:42.555Z,23.93
2022-07-30T19:38:09.933Z,23.87
2022-07-30T19:40:42.144Z,23.78
2022-07-30T19:43:09.977Z,23.75
2022-07-30T19:45:47.555Z,23.67
2022-07-30T19:48:15.298Z,23.63
2022-07-30T19:50:56.967Z,23.62
2022-07-30T19:53:23.886Z,23.54
2022-07-30T19:55:50.959Z,23.56
2022-07-30T19:58:17.992Z,23.32
2022-07-30T20:00:49.646Z,23.41
2022-07-30T20:03:25.947Z,23.27
2022-07-30T20:05:59.332Z,23.33
2022-07-30T20:08:27.452Z,23.32
2022-07-30T20:10:57.825Z,23.31
2022-07-30T20:13:44.769Z,23.35
2022-07-30T20:16:12.611Z,23.28
2022-07-30T20:18:40.146Z,23.31
2022-07-30T20:21:12.544Z,23.35
2022-07-30T20:23:41.263Z,23.35
2022-07-30T20:26:12.603Z,23.36
2022-07-30T20:28:44.996Z,23.35
2022-07-30T20:31:12.831Z,23.37
2022-07-30T20:33:40.151Z,23.25
2022-07-30T20:36:10.089Z,23.37
2022-07-30T20:38:38.744Z,23.36
2022-07-30T20:41:10.001Z,23.35
2022-07-30T20:43:52.128Z,23.19
2022-07-30T20:46:20.185Z,23.34
2022-07-30T20:48:46.919Z,23.32
2022-07-30T20:51:13.891Z,23.33
2022-07-30T20:53:41.925Z,23.30
2022-07-30T20:56:12.363Z,23.29
2022-07-30T20:58:40.772Z,23.29
2022-07-30T21:01:07.821Z,23.16
2022-07-30T21:03:34.590Z,23.23
2022-07-30T21:06:02.947Z,23.27
2022-07-30T21:08:31.439Z,23.26
2022-07-30T21:13:45.466Z,23.17
2022-07-30T21:16:16.438Z,23.24
2022-07-30T21:18:49.686Z,23.21
2022-07-30T21:21:30.695Z,23.17
2022-07-30T21:24:05.208Z,23.05
2022-07-30T21:26:32.113Z,23.16
2022-07-30T21:29:00.828Z,23.10
2022-07-30T21:32:08.794Z,23.11
2022-07-30T21:34:14.610Z,23.08
2022-07-30T21:36:42.750Z,23.00
2022-07-30T21:39:09.829Z,22.88
2022-07-30T21:41:41.182Z,22.78
2022-07-30T21:44:08.132Z,22.76
2022-07-30T21:46:37.787Z,22.83
2022-07-30T21:49:07.034Z,22.85
2022-07-30T21:51:34.731Z,22.81
2022-07-30T21:54:01.383Z,22.75
2022-07-30T21:56:33.846Z,22.86
2022-07-30T21:59:00.480Z,22.89
2022-07-30T22:01:27.025Z,22.88
2022-07-30T22:04:02.775Z,22.79
2022-07-30T22:06:39.536Z,22.82
2022-07-30T22:09:19.531Z,22.84
2022-07-30T22:11:56.120Z,22.77
2022-07-30T22:14:24.833Z,22.70
2022-07-30T22:16:52.557Z,22.75
2022-07-30T22:19:21.811Z,22.75
2022-07-30T22:21:50.932Z,22.60
2022-07-30T22:24:29.990Z,22.66
2022-07-30T22:27:01.012Z,22.60
2022-07-30T22:29:34.522Z,22.57
2022-07-30T22:32:03.928Z,22.53
2022-07-30T22:34:30.891Z,22.47
2022-07-30T22:36:57.717Z,22.39
2022-07-30T22:39:24.503Z,22.39
2022-07-30T22:42:12.663Z,22.22
2022-07-30T22:44:41.545Z,22.22
2022-07-30T22:47:21.134Z,22.34
2022-07-30T22:49:59.479Z,22.34
2022-07-30T22:52:27.525Z,22.28
2022-07-30T22:54:56.503Z,22.28
2022-07-30T22:57:28.826Z,22.23
2022-07-30T23:00:07.307Z,22.18
2022-07-30T23:02:42.159Z,22.18
2022-07-30T23:05:10.513Z,22.00
2022-07-30T23:07:39.508Z,21.91
2022-07-30T23:10:17.151Z,22.02
2022-07-30T23:12:32.093Z,23.18
2022-07-30T23:12:47.041Z,21.97
2022-07-30T23:15:13.892Z,21.92
2022-07-30T23:17:40.655Z,21.95
2022-07-30T23:20:09.970Z,21.90
2022-07-30T23:22:37.090Z,21.90
2022-07-30T23:25:06.266Z,21.93
2022-07-30T23:27:32.978Z,21.94
2022-07-30T23:29:59.624Z,21.88
2022-07-30T23:32:26.222Z,21.83
2022-07-30T23:34:52.958Z,21.80
2022-07-30T23:37:19.921Z,21.78
2022-07-30T23:39:46.718Z,21.65
2022-07-30T23:42:13.272Z,21.72
2022-07-30T23:44:39.855Z,21.67
2022-07-30T23:47:06.632Z,21.69
2022-07-30T23:49:33.244Z,21.68
2022-07-30T23:51:59.983Z,21.64
2022-07-30T23:54:28.865Z,21.76
2022-07-30T23:56:56.337Z,21.63
2022-07-30T23:59:24.162Z,21.70
